sensor_id;sensor_type;location;lat;lon;timestamp;P1;durP1;ratioP1;P2;durP2;ratioP2
31182;SDS011;17813;0.000;0.000;2023-04-03T00:00:51;3.40;;;1.80;;
31182;SDS011;17813;0.000;0.000;2023-04-03T00:03:18;3.70;;;2.00;;
31182;SDS011;17813;0.000;0.000;2023-04-03T00:05:46;4.13;;;2.20;;
31182;SDS011;17813;0.000;0.000;2023-04-03T00:08:13;3.57;;;1.83;;
31182;SDS011;17813;0.000;0.000;2023-04-03T00:10:40;2.90;;;1.87;;
31182;SDS011;17813;0.000;0.000;2023-04-03T00:13:08;3.13;;;1.80;;
31182;SDS011;17813;0.000;0.000;2023-04-03T00:15:36;4.13;;;2.10;;
31182;SDS011;17813;0.000;0.000;2023-04-03T00:18:04;4.57;;;2.00;;
31182;SDS011;17813;0.000;0.000;2023-04-03T00:20:32;3.80;;;1.90;;
31182;SDS011;17813;0.000;0.000;2023-04-03T00:23:01;3.13;;;1.90;;
31182;SDS011;17813;0.000;0.000;2023-04-03T00:25:28;3.97;;;1.70;;
31182;SDS011;17813;0.000;0.000;2023-04-03T00:27:59;3.30;;;2.03;;
31182;SDS011;17813;0.000;0.000;2023-04-03T00:30:26;2.97;;;1.83;;
31182;SDS011;17813;0.000;0.000;2023-04-03T00:32:53;5.27;;;2.10;;
31182;SDS011;17813;0.000;0.000;2023-04-03T00:35:22;6.43;;;1.97;;
31182;SDS011;17813;0.000;0.000;2023-04-03T00:37:51;4.73;;;2.10;;
31182;SDS011;17813;0.000;0.000;2023-04-03T00:40:20;5.53;;;1.97;;
31182;SDS011;17813;0.000;0.000;2023-04-03T00:42:50;3.23;;;1.77;;
31182;SDS011;17813;0.000;0.000;2023-04-03T00:45:28;4.13;;;1.77;;
31182;SDS011;17813;0.000;0.000;2023-04-03T00:48:05;5.23;;;2.13;;
31182;SDS011;17813;0.000;0.000;2023-04-03T00:50:35;3.90;;;2.00;;
31182;SDS011;17813;0.000;0.000;2023-04-03T00:53:05;3.07;;;1.80;;
31182;SDS011;17813;0.000;0.000;2023-04-03T00:55:36;3.97;;;2.00;;
31182;SDS011;17813;0.000;0.000;2023-04-03T00:58:05;5.50;;;2.20;;
31182;SDS011;17813;0.000;0.000;2023-04-03T01:00:33;3.23;;;1.80;;
31182;SDS011;17813;0.000;0.000;2023-04-03T01:03:03;4.07;;;2.00;;
31182;SDS011;17813;0.000;0.000;2023-04-03T01:05:31;2.20;;;1.63;;
31182;SDS011;17813;0.000;0.000;2023-04-03T01:07:59;4.27;;;1.90;;
31182;SDS011;17813;0.000;0.000;2023-04-03T01:10:26;8.73;;;2.33;;
31182;SDS011;17813;0.000;0.000;2023-04-03T01:12:53;3.60;;;1.60;;
31182;SDS011;17813;0.000;0.000;2023-04-03T01:15:24;3.30;;;1.80;;
31182;SDS011;17813;0.000;0.000;2023-04-03T01:17:54;3.33;;;1.80;;
31182;SDS011;17813;0.000;0.000;2023-04-03T01:26:40;3.27;;;1.70;;
31182;SDS011;17813;0.000;0.000;2023-04-03T01:29:07;3.43;;;1.70;;
31182;SDS011;17813;0.000;0.000;2023-04-03T01:34:01;4.77;;;1.90;;
31182;SDS011;17813;0.000;0.000;2023-04-03T01:36:30;4.77;;;1.87;;
31182;SDS011;17813;0.000;0.000;2023-04-03T01:38:58;2.67;;;1.80;;
31182;SDS011;17813;0.000;0.000;2023-04-03T01:41:26;4.07;;;1.77;;
31182;SDS011;17813;0.000;0.000;2023-04-03T01:43:54;2.90;;;1.60;;
31182;SDS011;17813;0.000;0.000;2023-04-03T01:46:22;4.07;;;1.90;;
31182;SDS011;17813;0.000;0.000;2023-04-03T01:48:49;4.10;;;1.80;;
31182;SDS011;17813;0.000;0.000;2023-04-03T01:51:16;4.13;;;1.80;;
31182;SDS011;17813;0.000;0.000;2023-04-03T01:53:43;4.03;;;1.90;;
31182;SDS011;17813;0.000;0.000;2023-04-03T01:56:18;4.30;;;1.80;;
31182;SDS011;17813;0.000;0.000;2023-04-03T01:58:46;2.33;;;1.53;;
31182;SDS011;17813;0.000;0.000;2023-04-03T02:01:13;4.40;;;2.00;;
31182;SDS011;17813;0.000;0.000;2023-04-03T02:03:40;3.40;;;1.70;;
31182;SDS011;17813;0.000;0.000;2023-04-03T02:06:07;4.27;;;1.80;;
31182;SDS011;17813;0.000;0.000;2023-04-03T02:08:34;5.03;;;2.03;;
31182;SDS011;17813;0.000;0.000;2023-04-03T02:11:01;3.57;;;1.90;;
31182;SDS011;17813;0.000;0.000;2023-04-03T02:13:28;5.47;;;1.80;;
31182;SDS011;17813;0.000;0.000;2023-04-03T02:15:55;4.63;;;1.90;;
31182;SDS011;17813;0.000;0.000;2023-04-03T02:18:23;2.73;;;1.70;;
31182;SDS011;17813;0.000;0.000;2023-04-03T02:20:50;2.20;;;1.50;;
31182;SDS011;17813;0.000;0.000;2023-04-03T02:23:17;4.30;;;1.80;;
31182;SDS011;17813;0.000;0.000;2023-04-03T02:25:45;3.00;;;1.83;;
31182;SDS011;17813;0.000;0.000;2023-04-03T02:28:11;3.83;;;1.90;;
31182;SDS011;17813;0.000;0.000;2023-04-03T02:30:39;4.00;;;1.97;;
31182;SDS011;17813;0.000;0.000;2023-04-03T02:33:06;4.73;;;1.73;;
31182;SDS011;17813;0.000;0.000;2023-04-03T02:35:33;3.20;;;1.70;;
31182;SDS011;17813;0.000;0.000;2023-04-03T02:38:00;5.33;;;2.10;;
31182;SDS011;17813;0.000;0.000;2023-04-03T02:40:27;3.93;;;1.80;;
31182;SDS011;17813;0.000;0.000;2023-04-03T02:42:54;4.53;;;2.00;;
31182;SDS011;17813;0.000;0.000;2023-04-03T02:45:21;4.10;;;1.77;;
31182;SDS011;17813;0.000;0.000;2023-04-03T02:47:47;3.27;;;1.90;;
31182;SDS011;17813;0.000;0.000;2023-04-03T02:50:14;5.37;;;2.03;;
31182;SDS011;17813;0.000;0.000;2023-04-03T02:52:41;2.53;;;1.80;;
31182;SDS011;17813;0.000;0.000;2023-04-03T02:55:08;5.00;;;2.10;;
31182;SDS011;17813;0.000;0.000;2023-04-03T02:57:38;3.90;;;1.87;;
31182;SDS011;17813;0.000;0.000;2023-04-03T03:00:06;3.83;;;1.90;;
31182;SDS011;17813;0.000;0.000;2023-04-03T03:02:35;5.33;;;2.17;;
31182;SDS011;17813;0.000;0.000;2023-04-03T03:05:02;4.77;;;1.77;;
31182;SDS011;17813;0.000;0.000;2023-04-03T03:07:29;3.13;;;1.97;;
31182;SDS011;17813;0.000;0.000;2023-04-03T03:09:57;3.27;;;1.90;;
31182;SDS011;17813;0.000;0.000;2023-04-03T03:12:23;3.93;;;2.00;;
31182;SDS011;17813;0.000;0.000;2023-04-03T03:14:50;3.80;;;2.03;;
31182;SDS011;17813;0.000;0.000;2023-04-03T03:17:17;3.23;;;2.00;;
31182;SDS011;17813;0.000;0.000;2023-04-03T03:19:44;3.70;;;1.97;;
31182;SDS011;17813;0.000;0.000;2023-04-03T03:22:11;6.50;;;2.23;;
31182;SDS011;17813;0.000;0.000;2023-04-03T03:24:38;4.17;;;2.00;;
31182;SDS011;17813;0.000;0.000;2023-04-03T03:27:05;2.30;;;1.63;;
31182;SDS011;17813;0.000;0.000;2023-04-03T03:29:32;4.77;;;2.00;;
31182;SDS011;17813;0.000;0.000;2023-04-03T03:32:00;4.30;;;2.20;;
31182;SDS011;17813;0.000;0.000;2023-04-03T03:34:27;4.37;;;2.03;;
31182;SDS011;17813;0.000;0.000;2023-04-03T03:36:54;4.17;;;1.97;;
31182;SDS011;17813;0.000;0.000;2023-04-03T03:39:21;4.57;;;2.10;;
31182;SDS011;17813;0.000;0.000;2023-04-03T03:41:51;3.47;;;1.93;;
31182;SDS011;17813;0.000;0.000;2023-04-03T03:44:19;4.13;;;1.97;;
31182;SDS011;17813;0.000;0.000;2023-04-03T03:46:46;4.37;;;2.00;;
31182;SDS011;17813;0.000;0.000;2023-04-03T03:49:13;4.30;;;2.23;;
31182;SDS011;17813;0.000;0.000;2023-04-03T03:51:40;4.60;;;2.13;;
31182;SDS011;17813;0.000;0.000;2023-04-03T03:54:08;4.53;;;2.10;;
31182;SDS011;17813;0.000;0.000;2023-04-03T03:56:35;3.43;;;2.10;;
31182;SDS011;17813;0.000;0.000;2023-04-03T03:59:02;4.07;;;2.10;;
31182;SDS011;17813;0.000;0.000;2023-04-03T04:01:32;2.80;;;1.90;;
31182;SDS011;17813;0.000;0.000;2023-04-03T04:04:00;4.73;;;3.20;;
31182;SDS011;17813;0.000;0.000;2023-04-03T04:06:27;7.53;;;3.47;;
31182;SDS011;17813;0.000;0.000;2023-04-03T04:08:54;3.80;;;2.00;;
31182;SDS011;17813;0.000;0.000;2023-04-03T04:11:21;5.07;;;2.50;;
31182;SDS011;17813;0.000;0.000;2023-04-03T04:13:54;3.80;;;2.60;;
31182;SDS011;17813;0.000;0.000;2023-04-03T04:16:21;5.73;;;2.10;;
31182;SDS011;17813;0.000;0.000;2023-04-03T04:18:49;5.00;;;2.10;;
31182;SDS011;17813;0.000;0.000;2023-04-03T04:21:17;5.47;;;2.40;;
31182;SDS011;17813;0.000;0.000;2023-04-03T04:23:43;5.97;;;2.20;;
31182;SDS011;17813;0.000;0.000;2023-04-03T04:26:10;3.43;;;1.97;;
31182;SDS011;17813;0.000;0.000;2023-04-03T04:28:37;3.87;;;2.10;;
31182;SDS011;17813;0.000;0.000;2023-04-03T04:31:05;4.07;;;2.07;;
31182;SDS011;17813;0.000;0.000;2023-04-03T04:33:32;4.67;;;2.40;;
31182;SDS011;17813;0.000;0.000;2023-04-03T04:35:59;6.50;;;2.30;;
31182;SDS011;17813;0.000;0.000;2023-04-03T04:38:26;5.27;;;2.33;;
31182;SDS011;17813;0.000;0.000;2023-04-03T04:40:53;5.67;;;2.23;;
31182;SDS011;17813;0.000;0.000;2023-04-03T04:43:22;3.87;;;2.20;;
31182;SDS011;17813;0.000;0.000;2023-04-03T04:46:09;6.37;;;2.27;;
31182;SDS011;17813;0.000;0.000;2023-04-03T04:48:37;3.70;;;1.97;;
31182;SDS011;17813;0.000;0.000;2023-04-03T04:51:04;7.60;;;2.57;;
31182;SDS011;17813;0.000;0.000;2023-04-03T04:53:31;4.00;;;2.17;;
31182;SDS011;17813;0.000;0.000;2023-04-03T04:55:58;5.70;;;2.33;;
31182;SDS011;17813;0.000;0.000;2023-04-03T04:58:25;6.10;;;2.40;;
31182;SDS011;17813;0.000;0.000;2023-04-03T05:01:06;3.87;;;2.30;;
31182;SDS011;17813;0.000;0.000;2023-04-03T05:03:34;4.37;;;2.30;;
31182;SDS011;17813;0.000;0.000;2023-04-03T05:06:02;6.70;;;2.70;;
31182;SDS011;17813;0.000;0.000;2023-04-03T05:08:29;4.17;;;2.40;;
31182;SDS011;17813;0.000;0.000;2023-04-03T05:10:57;7.17;;;2.63;;
31182;SDS011;17813;0.000;0.000;2023-04-03T05:13:24;4.20;;;2.23;;
31182;SDS011;17813;0.000;0.000;2023-04-03T05:15:52;7.53;;;2.60;;
31182;SDS011;17813;0.000;0.000;2023-04-03T05:18:19;5.30;;;2.20;;
31182;SDS011;17813;0.000;0.000;2023-04-03T05:20:47;3.93;;;2.10;;
31182;SDS011;17813;0.000;0.000;2023-04-03T05:23:16;4.60;;;2.30;;
31182;SDS011;17813;0.000;0.000;2023-04-03T05:25:44;3.47;;;2.20;;
31182;SDS011;17813;0.000;0.000;2023-04-03T05:28:12;3.73;;;2.27;;
31182;SDS011;17813;0.000;0.000;2023-04-03T05:30:41;5.23;;;2.47;;
31182;SDS011;17813;0.000;0.000;2023-04-03T05:33:08;5.47;;;2.47;;
31182;SDS011;17813;0.000;0.000;2023-04-03T05:35:37;2.90;;;2.10;;
31182;SDS011;17813;0.000;0.000;2023-04-03T05:38:07;3.60;;;2.20;;
31182;SDS011;17813;0.000;0.000;2023-04-03T05:40:33;5.13;;;2.67;;
31182;SDS011;17813;0.000;0.000;2023-04-03T05:43:00;4.57;;;2.30;;
31182;SDS011;17813;0.000;0.000;2023-04-03T05:45:27;5.97;;;2.50;;
31182;SDS011;17813;0.000;0.000;2023-04-03T05:47:55;6.80;;;2.37;;
31182;SDS011;17813;0.000;0.000;2023-04-03T05:50:22;4.50;;;2.30;;
31182;SDS011;17813;0.000;0.000;2023-04-03T05:52:49;6.77;;;2.50;;
31182;SDS011;17813;0.000;0.000;2023-04-03T05:55:19;4.87;;;2.50;;
31182;SDS011;17813;0.000;0.000;2023-04-03T05:57:47;5.63;;;2.90;;
31182;SDS011;17813;0.000;0.000;2023-04-03T06:00:14;5.23;;;2.37;;
31182;SDS011;17813;0.000;0.000;2023-04-03T06:02:41;6.77;;;2.73;;
31182;SDS011;17813;0.000;0.000;2023-04-03T06:05:09;7.63;;;2.63;;
31182;SDS011;17813;0.000;0.000;2023-04-03T06:07:37;4.73;;;2.30;;
31182;SDS011;17813;0.000;0.000;2023-04-03T06:10:05;3.87;;;2.27;;
31182;SDS011;17813;0.000;0.000;2023-04-03T06:12:36;4.63;;;2.00;;
31182;SDS011;17813;0.000;0.000;2023-04-03T06:15:04;5.80;;;2.73;;
31182;SDS011;17813;0.000;0.000;2023-04-03T06:17:33;4.47;;;2.40;;
31182;SDS011;17813;0.000;0.000;2023-04-03T06:20:01;6.57;;;2.50;;
31182;SDS011;17813;0.000;0.000;2023-04-03T06:22:40;5.23;;;2.53;;
31182;SDS011;17813;0.000;0.000;2023-04-03T06:25:08;5.73;;;2.40;;
31182;SDS011;17813;0.000;0.000;2023-04-03T06:27:37;4.03;;;2.20;;
31182;SDS011;17813;0.000;0.000;2023-04-03T06:30:09;5.33;;;2.30;;
31182;SDS011;17813;0.000;0.000;2023-04-03T06:32:37;6.77;;;2.53;;
31182;SDS011;17813;0.000;0.000;2023-04-03T06:35:04;6.30;;;2.50;;
31182;SDS011;17813;0.000;0.000;2023-04-03T06:37:33;3.57;;;2.17;;
31182;SDS011;17813;0.000;0.000;2023-04-03T06:40:02;3.87;;;2.00;;
31182;SDS011;17813;0.000;0.000;2023-04-03T06:42:30;4.70;;;2.50;;
31182;SDS011;17813;0.000;0.000;2023-04-03T06:44:57;6.43;;;2.47;;
31182;SDS011;17813;0.000;0.000;2023-04-03T06:47:24;6.13;;;2.37;;
31182;SDS011;17813;0.000;0.000;2023-04-03T06:49:51;3.67;;;2.00;;
31182;SDS011;17813;0.000;0.000;2023-04-03T06:52:18;6.63;;;2.50;;
31182;SDS011;17813;0.000;0.000;2023-04-03T06:54:45;3.33;;;1.97;;
31182;SDS011;17813;0.000;0.000;2023-04-03T06:57:15;6.57;;;2.43;;
31182;SDS011;17813;0.000;0.000;2023-04-03T06:59:44;5.67;;;2.73;;
31182;SDS011;17813;0.000;0.000;2023-04-03T07:02:13;4.80;;;2.37;;
31182;SDS011;17813;0.000;0.000;2023-04-03T07:04:40;4.57;;;2.30;;
31182;SDS011;17813;0.000;0.000;2023-04-03T07:07:08;5.60;;;2.27;;
31182;SDS011;17813;0.000;0.000;2023-04-03T07:09:36;4.50;;;2.67;;
31182;SDS011;17813;0.000;0.000;2023-04-03T07:12:03;6.87;;;2.80;;
31182;SDS011;17813;0.000;0.000;2023-04-03T07:14:30;6.50;;;3.00;;
31182;SDS011;17813;0.000;0.000;2023-04-03T07:16:57;4.30;;;2.47;;
31182;SDS011;17813;0.000;0.000;2023-04-03T07:19:24;4.87;;;2.60;;
31182;SDS011;17813;0.000;0.000;2023-04-03T07:21:53;3.97;;;2.63;;
31182;SDS011;17813;0.000;0.000;2023-04-03T07:24:21;4.97;;;3.07;;
31182;SDS011;17813;0.000;0.000;2023-04-03T07:26:51;5.87;;;2.97;;
31182;SDS011;17813;0.000;0.000;2023-04-03T07:29:18;3.57;;;2.80;;
31182;SDS011;17813;0.000;0.000;2023-04-03T07:31:47;5.43;;;2.70;;
31182;SDS011;17813;0.000;0.000;2023-04-03T07:34:14;6.23;;;3.00;;
31182;SDS011;17813;0.000;0.000;2023-04-03T07:36:42;5.17;;;2.90;;
31182;SDS011;17813;0.000;0.000;2023-04-03T07:39:11;3.93;;;2.80;;
31182;SDS011;17813;0.000;0.000;2023-04-03T07:41:38;4.37;;;2.80;;
31182;SDS011;17813;0.000;0.000;2023-04-03T07:44:05;5.90;;;2.60;;
31182;SDS011;17813;0.000;0.000;2023-04-03T07:46:35;5.37;;;3.60;;
31182;SDS011;17813;0.000;0.000;2023-04-03T07:49:04;4.70;;;3.53;;
31182;SDS011;17813;0.000;0.000;2023-04-03T07:51:31;6.70;;;3.10;;
31182;SDS011;17813;0.000;0.000;2023-04-03T07:53:58;6.37;;;2.77;;
31182;SDS011;17813;0.000;0.000;2023-04-03T07:56:26;6.07;;;2.87;;
31182;SDS011;17813;0.000;0.000;2023-04-03T07:58:53;4.53;;;2.30;;
31182;SDS011;17813;0.000;0.000;2023-04-03T08:01:23;3.37;;;2.20;;
31182;SDS011;17813;0.000;0.000;2023-04-03T08:03:50;4.57;;;2.70;;
31182;SDS011;17813;0.000;0.000;2023-04-03T08:06:19;4.77;;;2.40;;
31182;SDS011;17813;0.000;0.000;2023-04-03T08:08:48;4.33;;;2.40;;
31182;SDS011;17813;0.000;0.000;2023-04-03T08:11:15;3.63;;;2.07;;
31182;SDS011;17813;0.000;0.000;2023-04-03T08:13:42;3.53;;;2.10;;
31182;SDS011;17813;0.000;0.000;2023-04-03T08:16:16;6.07;;;2.17;;
31182;SDS011;17813;0.000;0.000;2023-04-03T08:18:46;5.17;;;2.13;;
31182;SDS011;17813;0.000;0.000;2023-04-03T08:21:13;4.90;;;2.13;;
31182;SDS011;17813;0.000;0.000;2023-04-03T08:23:40;4.10;;;2.30;;
31182;SDS011;17813;0.000;0.000;2023-04-03T08:26:09;3.57;;;1.90;;
31182;SDS011;17813;0.000;0.000;2023-04-03T08:28:40;3.80;;;1.97;;
31182;SDS011;17813;0.000;0.000;2023-04-03T08:31:09;3.90;;;1.87;;
31182;SDS011;17813;0.000;0.000;2023-04-03T08:33:39;4.87;;;1.90;;
31182;SDS011;17813;0.000;0.000;2023-04-03T08:36:14;2.97;;;2.13;;
31182;SDS011;17813;0.000;0.000;2023-04-03T08:38:44;3.73;;;2.00;;
31182;SDS011;17813;0.000;0.000;2023-04-03T08:41:14;4.10;;;2.10;;
31182;SDS011;17813;0.000;0.000;2023-04-03T08:49:26;5.63;;;2.10;;
31182;SDS011;17813;0.000;0.000;2023-04-03T08:52:05;3.80;;;1.90;;
31182;SDS011;17813;0.000;0.000;2023-04-03T08:54:57;2.60;;;1.80;;
31182;SDS011;17813;0.000;0.000;2023-04-03T08:59:57;3.03;;;1.40;;
31182;SDS011;17813;0.000;0.000;2023-04-03T09:02:34;4.77;;;1.80;;
31182;SDS011;17813;0.000;0.000;2023-04-03T09:05:18;3.70;;;1.70;;
31182;SDS011;17813;0.000;0.000;2023-04-03T09:08:07;3.17;;;1.53;;
31182;SDS011;17813;0.000;0.000;2023-04-03T09:10:47;4.13;;;1.67;;
31182;SDS011;17813;0.000;0.000;2023-04-03T09:13:32;3.13;;;1.50;;
31182;SDS011;17813;0.000;0.000;2023-04-03T09:22:11;2.97;;;1.40;;
31182;SDS011;17813;0.000;0.000;2023-04-03T09:24:39;2.50;;;1.40;;
31182;SDS011;17813;0.000;0.000;2023-04-03T09:27:09;2.50;;;1.20;;
31182;SDS011;17813;0.000;0.000;2023-04-03T09:29:40;2.93;;;1.60;;
31182;SDS011;17813;0.000;0.000;2023-04-03T09:32:28;2.27;;;1.40;;
31182;SDS011;17813;0.000;0.000;2023-04-03T09:35:42;2.43;;;1.50;;
31182;SDS011;17813;0.000;0.000;2023-04-03T09:37:52;1.97;;;1.40;;
31182;SDS011;17813;0.000;0.000;2023-04-03T09:43:19;4.17;;;1.63;;
31182;SDS011;17813;0.000;0.000;2023-04-03T09:45:47;2.80;;;1.60;;
31182;SDS011;17813;0.000;0.000;2023-04-03T09:48:17;2.50;;;1.20;;
31182;SDS011;17813;0.000;0.000;2023-04-03T09:50:57;2.23;;;1.63;;
31182;SDS011;17813;0.000;0.000;2023-04-03T09:53:30;3.87;;;1.30;;
31182;SDS011;17813;0.000;0.000;2023-04-03T09:56:01;2.20;;;1.30;;
31182;SDS011;17813;0.000;0.000;2023-04-03T09:58:47;2.27;;;1.27;;
31182;SDS011;17813;0.000;0.000;2023-04-03T10:01:36;3.13;;;1.70;;
31182;SDS011;17813;0.000;0.000;2023-04-03T10:04:12;1.77;;;1.40;;
31182;SDS011;17813;0.000;0.000;2023-04-03T10:06:45;2.80;;;1.33;;
31182;SDS011;17813;0.000;0.000;2023-04-03T10:09:20;1.93;;;1.20;;
31182;SDS011;17813;0.000;0.000;2023-04-03T10:12:10;2.23;;;1.20;;
31182;SDS011;17813;0.000;0.000;2023-04-03T10:29:09;2.47;;;1.20;;
31182;SDS011;17813;0.000;0.000;2023-04-03T10:32:21;1.90;;;1.30;;
31182;SDS011;17813;0.000;0.000;2023-04-03T10:34:51;4.03;;;2.50;;
31182;SDS011;17813;0.000;0.000;2023-04-03T10:37:34;2.87;;;1.63;;
31182;SDS011;17813;0.000;0.000;2023-04-03T10:40:29;3.33;;;1.80;;
31182;SDS011;17813;0.000;0.000;2023-04-03T10:43:19;2.67;;;1.47;;
31182;SDS011;17813;0.000;0.000;2023-04-03T10:51:16;10.53;;;1.90;;
31182;SDS011;17813;0.000;0.000;2023-04-03T10:53:58;1.93;;;1.30;;
31182;SDS011;17813;0.000;0.000;2023-04-03T10:56:48;1.77;;;1.20;;
31182;SDS011;17813;0.000;0.000;2023-04-03T10:59:36;2.37;;;1.33;;
31182;SDS011;17813;0.000;0.000;2023-04-03T11:04:53;4.77;;;1.90;;
31182;SDS011;17813;0.000;0.000;2023-04-03T11:07:28;2.57;;;1.60;;
31182;SDS011;17813;0.000;0.000;2023-04-03T11:10:05;3.37;;;2.00;;
31182;SDS011;17813;0.000;0.000;2023-04-03T11:12:46;2.60;;;1.60;;
31182;SDS011;17813;0.000;0.000;2023-04-03T11:15:22;2.00;;;1.50;;
31182;SDS011;17813;0.000;0.000;2023-04-03T11:18:04;1.70;;;1.30;;
31182;SDS011;17813;0.000;0.000;2023-04-03T11:20:37;2.70;;;1.40;;
31182;SDS011;17813;0.000;0.000;2023-04-03T11:25:50;2.27;;;1.40;;
31182;SDS011;17813;0.000;0.000;2023-04-03T11:28:20;1.80;;;1.30;;
31182;SDS011;17813;0.000;0.000;2023-04-03T11:30:57;1.70;;;1.47;;
31182;SDS011;17813;0.000;0.000;2023-04-03T11:38:52;1.47;;;1.20;;
31182;SDS011;17813;0.000;0.000;2023-04-03T11:41:56;2.73;;;1.30;;
31182;SDS011;17813;0.000;0.000;2023-04-03T11:44:27;1.70;;;1.10;;
31182;SDS011;17813;0.000;0.000;2023-04-03T11:48:01;2.77;;;1.40;;
31182;SDS011;17813;0.000;0.000;2023-04-03T11:50:32;3.57;;;1.50;;
31182;SDS011;17813;0.000;0.000;2023-04-03T11:53:30;2.30;;;1.40;;
31182;SDS011;17813;0.000;0.000;2023-04-03T11:56:26;2.57;;;1.40;;
31182;SDS011;17813;0.000;0.000;2023-04-03T12:04:15;2.67;;;1.47;;
31182;SDS011;17813;0.000;0.000;2023-04-03T12:11:55;1.70;;;1.50;;
31182;SDS011;17813;0.000;0.000;2023-04-03T12:14:24;3.40;;;1.37;;
31182;SDS011;17813;0.000;0.000;2023-04-03T12:16:53;1.63;;;1.10;;
31182;SDS011;17813;0.000;0.000;2023-04-03T12:19:27;2.70;;;1.30;;
31182;SDS011;17813;0.000;0.000;2023-04-03T12:24:29;1.87;;;1.30;;
31182;SDS011;17813;0.000;0.000;2023-04-03T12:41:37;3.60;;;1.40;;
31182;SDS011;17813;0.000;0.000;2023-04-03T12:47:04;4.03;;;1.40;;
31182;SDS011;17813;0.000;0.000;2023-04-03T12:50:00;2.57;;;1.70;;
31182;SDS011;17813;0.000;0.000;2023-04-03T12:55:28;2.07;;;1.57;;
31182;SDS011;17813;0.000;0.000;2023-04-03T12:57:56;3.73;;;1.33;;
31182;SDS011;17813;0.000;0.000;2023-04-03T13:00:38;4.30;;;1.70;;
31182;SDS011;17813;0.000;0.000;2023-04-03T13:03:06;3.00;;;1.67;;
31182;SDS011;17813;0.000;0.000;2023-04-03T13:06:30;2.77;;;1.70;;
31182;SDS011;17813;0.000;0.000;2023-04-03T13:09:06;4.77;;;1.73;;
31182;SDS011;17813;0.000;0.000;2023-04-03T13:11:57;3.47;;;2.00;;
31182;SDS011;17813;0.000;0.000;2023-04-03T13:14:28;4.80;;;1.60;;
31182;SDS011;17813;0.000;0.000;2023-04-03T13:16:59;2.10;;;1.40;;
31182;SDS011;17813;0.000;0.000;2023-04-03T13:19:37;2.77;;;1.50;;
31182;SDS011;17813;0.000;0.000;2023-04-03T13:22:06;1.93;;;1.60;;
31182;SDS011;17813;0.000;0.000;2023-04-03T13:24:39;2.63;;;1.60;;
31182;SDS011;17813;0.000;0.000;2023-04-03T13:27:07;3.80;;;1.50;;
31182;SDS011;17813;0.000;0.000;2023-04-03T13:29:37;2.90;;;1.40;;
31182;SDS011;17813;0.000;0.000;2023-04-03T13:32:05;2.97;;;1.67;;
31182;SDS011;17813;0.000;0.000;2023-04-03T13:34:41;3.07;;;1.50;;
31182;SDS011;17813;0.000;0.000;2023-04-03T13:37:22;2.53;;;1.80;;
31182;SDS011;17813;0.000;0.000;2023-04-03T13:39:59;4.57;;;1.70;;
31182;SDS011;17813;0.000;0.000;2023-04-03T13:42:30;2.27;;;1.50;;
31182;SDS011;17813;0.000;0.000;2023-04-03T13:47:48;2.80;;;1.63;;
31182;SDS011;17813;0.000;0.000;2023-04-03T13:50:19;2.90;;;1.53;;
31182;SDS011;17813;0.000;0.000;2023-04-03T13:52:51;3.27;;;1.80;;
31182;SDS011;17813;0.000;0.000;2023-04-03T13:55:22;3.93;;;1.70;;
31182;SDS011;17813;0.000;0.000;2023-04-03T13:58:16;4.17;;;1.80;;
31182;SDS011;17813;0.000;0.000;2023-04-03T14:00:52;3.37;;;1.40;;
31182;SDS011;17813;0.000;0.000;2023-04-03T14:03:29;2.47;;;1.47;;
31182;SDS011;17813;0.000;0.000;2023-04-03T14:06:01;3.67;;;1.70;;
31182;SDS011;17813;0.000;0.000;2023-04-03T14:08:30;2.20;;;1.53;;
31182;SDS011;17813;0.000;0.000;2023-04-03T14:10:58;1.90;;;1.47;;
31182;SDS011;17813;0.000;0.000;2023-04-03T14:13:29;3.73;;;1.53;;
31182;SDS011;17813;0.000;0.000;2023-04-03T14:15:57;2.77;;;1.83;;
31182;SDS011;17813;0.000;0.000;2023-04-03T14:18:24;3.97;;;1.70;;
31182;SDS011;17813;0.000;0.000;2023-04-03T14:20:52;3.73;;;1.50;;
31182;SDS011;17813;0.000;0.000;2023-04-03T14:23:20;3.80;;;1.70;;
31182;SDS011;17813;0.000;0.000;2023-04-03T14:25:48;3.97;;;1.70;;
31182;SDS011;17813;0.000;0.000;2023-04-03T14:28:17;3.93;;;1.93;;
31182;SDS011;17813;0.000;0.000;2023-04-03T14:30:49;3.20;;;1.70;;
31182;SDS011;17813;0.000;0.000;2023-04-03T14:33:26;2.33;;;1.70;;
31182;SDS011;17813;0.000;0.000;2023-04-03T14:35:58;3.70;;;2.00;;
31182;SDS011;17813;0.000;0.000;2023-04-03T14:38:26;3.50;;;2.13;;
31182;SDS011;17813;0.000;0.000;2023-04-03T14:40:55;3.40;;;1.70;;
31182;SDS011;17813;0.000;0.000;2023-04-03T14:43:26;4.53;;;1.67;;
31182;SDS011;17813;0.000;0.000;2023-04-03T14:45:55;2.80;;;1.70;;
31182;SDS011;17813;0.000;0.000;2023-04-03T14:48:24;4.90;;;1.70;;
31182;SDS011;17813;0.000;0.000;2023-04-03T14:50:54;1.73;;;1.50;;
31182;SDS011;17813;0.000;0.000;2023-04-03T14:53:21;2.90;;;1.60;;
31182;SDS011;17813;0.000;0.000;2023-04-03T14:55:51;2.00;;;1.60;;
31182;SDS011;17813;0.000;0.000;2023-04-03T14:58:19;4.50;;;1.80;;
31182;SDS011;17813;0.000;0.000;2023-04-03T15:00:47;3.70;;;1.77;;
31182;SDS011;17813;0.000;0.000;2023-04-03T15:03:19;3.43;;;1.60;;
31182;SDS011;17813;0.000;0.000;2023-04-03T15:05:53;2.13;;;1.60;;
31182;SDS011;17813;0.000;0.000;2023-04-03T15:08:24;3.87;;;1.70;;
31182;SDS011;17813;0.000;0.000;2023-04-03T15:10:55;5.23;;;1.97;;
31182;SDS011;17813;0.000;0.000;2023-04-03T15:13:24;3.40;;;1.73;;
31182;SDS011;17813;0.000;0.000;2023-04-03T15:15:51;2.73;;;1.50;;
31182;SDS011;17813;0.000;0.000;2023-04-03T15:18:20;3.80;;;1.80;;
31182;SDS011;17813;0.000;0.000;2023-04-03T15:20:52;2.50;;;1.80;;
31182;SDS011;17813;0.000;0.000;2023-04-03T15:23:20;2.67;;;1.70;;
31182;SDS011;17813;0.000;0.000;2023-04-03T15:25:55;3.93;;;1.80;;
31182;SDS011;17813;0.000;0.000;2023-04-03T15:28:24;4.47;;;2.00;;
31182;SDS011;17813;0.000;0.000;2023-04-03T15:30:56;2.80;;;2.10;;
31182;SDS011;17813;0.000;0.000;2023-04-03T15:33:24;3.63;;;1.87;;
31182;SDS011;17813;0.000;0.000;2023-04-03T15:35:52;3.47;;;1.87;;
31182;SDS011;17813;0.000;0.000;2023-04-03T15:38:19;3.17;;;1.80;;
31182;SDS011;17813;0.000;0.000;2023-04-03T15:40:46;4.77;;;1.87;;
31182;SDS011;17813;0.000;0.000;2023-04-03T15:43:14;3.10;;;1.90;;
31182;SDS011;17813;0.000;0.000;2023-04-03T15:45:41;4.70;;;1.97;;
31182;SDS011;17813;0.000;0.000;2023-04-03T15:48:12;3.10;;;2.17;;
31182;SDS011;17813;0.000;0.000;2023-04-03T15:50:40;3.40;;;2.00;;
31182;SDS011;17813;0.000;0.000;2023-04-03T15:53:08;4.97;;;2.30;;
31182;SDS011;17813;0.000;0.000;2023-04-03T15:55:36;3.47;;;1.97;;
31182;SDS011;17813;0.000;0.000;2023-04-03T15:58:04;2.47;;;1.87;;
31182;SDS011;17813;0.000;0.000;2023-04-03T16:00:31;4.47;;;2.20;;
31182;SDS011;17813;0.000;0.000;2023-04-03T16:03:05;3.70;;;2.10;;
31182;SDS011;17813;0.000;0.000;2023-04-03T16:05:37;4.93;;;2.00;;
31182;SDS011;17813;0.000;0.000;2023-04-03T16:08:06;4.00;;;2.20;;
31182;SDS011;17813;0.000;0.000;2023-04-03T16:10:34;3.20;;;2.50;;
31182;SDS011;17813;0.000;0.000;2023-04-03T16:13:02;5.00;;;2.57;;
31182;SDS011;17813;0.000;0.000;2023-04-03T16:15:35;6.17;;;2.37;;
31182;SDS011;17813;0.000;0.000;2023-04-03T16:18:09;6.00;;;2.60;;
31182;SDS011;17813;0.000;0.000;2023-04-03T16:20:39;4.83;;;2.70;;
31182;SDS011;17813;0.000;0.000;2023-04-03T16:23:09;4.00;;;2.10;;
31182;SDS011;17813;0.000;0.000;2023-04-03T16:25:36;3.23;;;2.40;;
31182;SDS011;17813;0.000;0.000;2023-04-03T16:28:04;2.53;;;1.80;;
31182;SDS011;17813;0.000;0.000;2023-04-03T16:30:31;5.13;;;2.10;;
31182;SDS011;17813;0.000;0.000;2023-04-03T16:32:58;2.60;;;2.00;;
31182;SDS011;17813;0.000;0.000;2023-04-03T16:35:25;2.70;;;1.80;;
31182;SDS011;17813;0.000;0.000;2023-04-03T16:37:55;3.93;;;2.00;;
31182;SDS011;17813;0.000;0.000;2023-04-03T16:40:22;4.53;;;2.20;;
31182;SDS011;17813;0.000;0.000;2023-04-03T16:42:50;2.40;;;1.80;;
31182;SDS011;17813;0.000;0.000;2023-04-03T16:45:17;3.13;;;2.10;;
31182;SDS011;17813;0.000;0.000;2023-04-03T16:47:45;4.03;;;2.10;;
31182;SDS011;17813;0.000;0.000;2023-04-03T16:50:12;4.27;;;2.00;;
31182;SDS011;17813;0.000;0.000;2023-04-03T16:52:39;3.23;;;1.90;;
31182;SDS011;17813;0.000;0.000;2023-04-03T16:55:07;3.57;;;2.03;;